Terminal Aerodrome Forecast
Issued by NWS

Home | Current Version | Previous Version | Graphics & Text | Print | Product List | Glossary On
Versions: 1 2 3 4 5 6 7 8 9 10 11 12 13 14 15 16 17 18 19 20 21 22 23 24 25 26 27 28
217
FTUS45 KGGW 280912 AAA
TAFOLF
TAF AMD
KOLF 280912Z 2809/2906 04005KT P6SM SCT005 BKN100
      TEMPO 2809/2812 1SM BR BKN005
     FM281200 07005KT P6SM VCSH BKN025
     FM290000 29009KT P6SM FEW250=

USA.gov is the U.S. government's official web portal to all federal, state and local government web resources and services.